sensor_id;sensor_type;location;lat;lon;timestamp;P1;durP1;ratioP1;P2;durP2;ratioP2
870;SDS011;422;51.280;7.236;2023-12-20T00:01:02;10.50;;;8.73;;
870;SDS011;422;51.280;7.236;2023-12-20T00:03:30;6.47;;;4.50;;
870;SDS011;422;51.280;7.236;2023-12-20T00:05:58;6.40;;;4.13;;
870;SDS011;422;51.280;7.236;2023-12-20T00:08:25;5.30;;;3.97;;
870;SDS011;422;51.280;7.236;2023-12-20T00:10:53;7.37;;;3.77;;
870;SDS011;422;51.280;7.236;2023-12-20T00:13:20;6.20;;;5.27;;
870;SDS011;422;51.280;7.236;2023-12-20T00:15:48;5.90;;;5.20;;
870;SDS011;422;51.280;7.236;2023-12-20T00:18:16;9.10;;;5.23;;
870;SDS011;422;51.280;7.236;2023-12-20T00:20:44;7.60;;;5.47;;
870;SDS011;422;51.280;7.236;2023-12-20T00:23:11;6.97;;;5.43;;
870;SDS011;422;51.280;7.236;2023-12-20T00:25:38;9.20;;;5.70;;
870;SDS011;422;51.280;7.236;2023-12-20T00:28:05;14.80;;;6.37;;
870;SDS011;422;51.280;7.236;2023-12-20T00:30:33;7.70;;;6.20;;
870;SDS011;422;51.280;7.236;2023-12-20T00:33:01;7.50;;;5.93;;
870;SDS011;422;51.280;7.236;2023-12-20T00:35:29;9.90;;;6.83;;
870;SDS011;422;51.280;7.236;2023-12-20T00:37:56;12.80;;;7.00;;
870;SDS011;422;51.280;7.236;2023-12-20T00:40:24;12.17;;;7.20;;
870;SDS011;422;51.280;7.236;2023-12-20T00:42:51;10.43;;;5.90;;
870;SDS011;422;51.280;7.236;2023-12-20T00:45:17;14.63;;;7.20;;
870;SDS011;422;51.280;7.236;2023-12-20T00:47:45;12.50;;;7.33;;
870;SDS011;422;51.280;7.236;2023-12-20T00:50:13;15.87;;;7.87;;
870;SDS011;422;51.280;7.236;2023-12-20T00:52:41;12.83;;;8.17;;
870;SDS011;422;51.280;7.236;2023-12-20T00:55:08;17.63;;;8.60;;
870;SDS011;422;51.280;7.236;2023-12-20T00:57:35;13.20;;;8.17;;
870;SDS011;422;51.280;7.236;2023-12-20T01:00:02;16.27;;;6.93;;
870;SDS011;422;51.280;7.236;2023-12-20T01:02:30;9.90;;;7.23;;
870;SDS011;422;51.280;7.236;2023-12-20T01:04:57;8.53;;;7.30;;
870;SDS011;422;51.280;7.236;2023-12-20T01:07:26;10.77;;;6.83;;
870;SDS011;422;51.280;7.236;2023-12-20T01:09:53;11.80;;;7.37;;
870;SDS011;422;51.280;7.236;2023-12-20T01:12:20;10.33;;;7.40;;
870;SDS011;422;51.280;7.236;2023-12-20T01:14:48;9.83;;;6.90;;
870;SDS011;422;51.280;7.236;2023-12-20T01:17:15;10.27;;;8.17;;
870;SDS011;422;51.280;7.236;2023-12-20T01:19:42;11.30;;;7.40;;
870;SDS011;422;51.280;7.236;2023-12-20T01:22:09;11.53;;;7.03;;
870;SDS011;422;51.280;7.236;2023-12-20T01:24:38;13.23;;;6.70;;
870;SDS011;422;51.280;7.236;2023-12-20T01:27:05;13.97;;;6.70;;
870;SDS011;422;51.280;7.236;2023-12-20T01:29:31;10.60;;;6.90;;
870;SDS011;422;51.280;7.236;2023-12-20T01:31:58;11.13;;;6.70;;
870;SDS011;422;51.280;7.236;2023-12-20T01:34:26;10.00;;;6.80;;
870;SDS011;422;51.280;7.236;2023-12-20T01:36:54;11.57;;;5.80;;
870;SDS011;422;51.280;7.236;2023-12-20T01:39:21;12.00;;;6.33;;
870;SDS011;422;51.280;7.236;2023-12-20T01:41:50;12.10;;;6.97;;
870;SDS011;422;51.280;7.236;2023-12-20T01:44:17;11.60;;;8.80;;
870;SDS011;422;51.280;7.236;2023-12-20T01:46:44;14.73;;;8.57;;
870;SDS011;422;51.280;7.236;2023-12-20T01:49:14;14.00;;;10.70;;
870;SDS011;422;51.280;7.236;2023-12-20T01:51:41;13.83;;;10.77;;
870;SDS011;422;51.280;7.236;2023-12-20T01:54:10;19.60;;;12.20;;
870;SDS011;422;51.280;7.236;2023-12-20T01:56:37;16.37;;;13.10;;
870;SDS011;422;51.280;7.236;2023-12-20T01:59:07;22.30;;;14.40;;
870;SDS011;422;51.280;7.236;2023-12-20T02:01:35;15.93;;;12.70;;
870;SDS011;422;51.280;7.236;2023-12-20T02:04:02;23.97;;;13.87;;
870;SDS011;422;51.280;7.236;2023-12-20T02:06:31;22.20;;;15.00;;
870;SDS011;422;51.280;7.236;2023-12-20T02:09:00;23.57;;;14.70;;
870;SDS011;422;51.280;7.236;2023-12-20T02:11:28;15.23;;;13.03;;
870;SDS011;422;51.280;7.236;2023-12-20T02:13:57;19.40;;;12.93;;
870;SDS011;422;51.280;7.236;2023-12-20T02:16:29;18.80;;;12.53;;
870;SDS011;422;51.280;7.236;2023-12-20T02:18:57;14.50;;;10.60;;
870;SDS011;422;51.280;7.236;2023-12-20T02:21:31;17.90;;;12.50;;
870;SDS011;422;51.280;7.236;2023-12-20T02:23:59;15.40;;;11.00;;
870;SDS011;422;51.280;7.236;2023-12-20T02:26:26;17.17;;;10.73;;
870;SDS011;422;51.280;7.236;2023-12-20T02:28:54;17.90;;;12.40;;
870;SDS011;422;51.280;7.236;2023-12-20T02:31:22;18.07;;;12.37;;
870;SDS011;422;51.280;7.236;2023-12-20T02:33:51;16.03;;;12.70;;
870;SDS011;422;51.280;7.236;2023-12-20T02:36:18;16.43;;;12.60;;
870;SDS011;422;51.280;7.236;2023-12-20T02:38:47;16.40;;;12.63;;
870;SDS011;422;51.280;7.236;2023-12-20T02:41:15;19.27;;;13.23;;
870;SDS011;422;51.280;7.236;2023-12-20T02:43:43;16.83;;;12.33;;
870;SDS011;422;51.280;7.236;2023-12-20T02:46:10;20.83;;;11.53;;
870;SDS011;422;51.280;7.236;2023-12-20T02:48:42;15.00;;;12.37;;
870;SDS011;422;51.280;7.236;2023-12-20T02:51:09;15.97;;;11.33;;
870;SDS011;422;51.280;7.236;2023-12-20T02:53:36;17.67;;;11.47;;
870;SDS011;422;51.280;7.236;2023-12-20T02:56:05;18.90;;;12.20;;
870;SDS011;422;51.280;7.236;2023-12-20T02:58:32;18.80;;;9.70;;
870;SDS011;422;51.280;7.236;2023-12-20T03:01:00;19.43;;;10.50;;
870;SDS011;422;51.280;7.236;2023-12-20T03:03:27;15.93;;;9.80;;
870;SDS011;422;51.280;7.236;2023-12-20T03:05:54;23.77;;;11.33;;
870;SDS011;422;51.280;7.236;2023-12-20T03:08:21;20.73;;;10.53;;
870;SDS011;422;51.280;7.236;2023-12-20T03:10:48;22.93;;;11.70;;
870;SDS011;422;51.280;7.236;2023-12-20T03:13:17;21.60;;;12.57;;
870;SDS011;422;51.280;7.236;2023-12-20T03:15:45;17.60;;;10.53;;
870;SDS011;422;51.280;7.236;2023-12-20T03:18:12;20.97;;;12.77;;
870;SDS011;422;51.280;7.236;2023-12-20T03:20:39;17.47;;;12.23;;
870;SDS011;422;51.280;7.236;2023-12-20T03:23:06;19.43;;;11.50;;
870;SDS011;422;51.280;7.236;2023-12-20T03:25:34;20.67;;;12.10;;
870;SDS011;422;51.280;7.236;2023-12-20T03:28:01;18.37;;;11.07;;
870;SDS011;422;51.280;7.236;2023-12-20T03:30:30;16.53;;;11.43;;
870;SDS011;422;51.280;7.236;2023-12-20T03:32:57;19.83;;;10.77;;
870;SDS011;422;51.280;7.236;2023-12-20T03:35:24;20.33;;;11.90;;
870;SDS011;422;51.280;7.236;2023-12-20T03:37:51;22.93;;;11.00;;
870;SDS011;422;51.280;7.236;2023-12-20T03:40:18;18.97;;;10.33;;
870;SDS011;422;51.280;7.236;2023-12-20T03:42:46;22.03;;;11.53;;
870;SDS011;422;51.280;7.236;2023-12-20T03:45:13;18.67;;;10.17;;
870;SDS011;422;51.280;7.236;2023-12-20T03:47:41;18.60;;;9.87;;
870;SDS011;422;51.280;7.236;2023-12-20T03:50:09;26.30;;;9.47;;
870;SDS011;422;51.280;7.236;2023-12-20T03:52:36;16.37;;;9.30;;
870;SDS011;422;51.280;7.236;2023-12-20T03:55:03;20.63;;;9.37;;
870;SDS011;422;51.280;7.236;2023-12-20T03:57:31;16.97;;;8.97;;
870;SDS011;422;51.280;7.236;2023-12-20T03:59:58;19.53;;;9.93;;
870;SDS011;422;51.280;7.236;2023-12-20T04:02:25;15.10;;;9.27;;
870;SDS011;422;51.280;7.236;2023-12-20T04:04:54;17.63;;;8.77;;
870;SDS011;422;51.280;7.236;2023-12-20T04:07:21;20.20;;;9.27;;
870;SDS011;422;51.280;7.236;2023-12-20T04:09:48;18.73;;;9.50;;
870;SDS011;422;51.280;7.236;2023-12-20T04:12:16;21.30;;;10.03;;
870;SDS011;422;51.280;7.236;2023-12-20T04:14:43;15.20;;;9.23;;
870;SDS011;422;51.280;7.236;2023-12-20T04:17:10;13.57;;;9.57;;
870;SDS011;422;51.280;7.236;2023-12-20T04:19:41;22.63;;;8.87;;
870;SDS011;422;51.280;7.236;2023-12-20T04:22:09;16.30;;;9.53;;
870;SDS011;422;51.280;7.236;2023-12-20T04:24:37;16.03;;;8.87;;
870;SDS011;422;51.280;7.236;2023-12-20T04:27:04;26.70;;;10.23;;
870;SDS011;422;51.280;7.236;2023-12-20T04:29:31;18.77;;;8.50;;
870;SDS011;422;51.280;7.236;2023-12-20T04:31:59;20.60;;;9.13;;
870;SDS011;422;51.280;7.236;2023-12-20T04:34:26;19.40;;;8.13;;
870;SDS011;422;51.280;7.236;2023-12-20T04:36:53;21.70;;;7.93;;
870;SDS011;422;51.280;7.236;2023-12-20T04:39:21;16.93;;;8.20;;
870;SDS011;422;51.280;7.236;2023-12-20T04:41:49;16.53;;;8.13;;
870;SDS011;422;51.280;7.236;2023-12-20T04:44:16;17.37;;;7.90;;
870;SDS011;422;51.280;7.236;2023-12-20T04:46:43;15.37;;;8.10;;
870;SDS011;422;51.280;7.236;2023-12-20T04:49:10;21.90;;;8.20;;
870;SDS011;422;51.280;7.236;2023-12-20T04:51:37;26.47;;;9.67;;
870;SDS011;422;51.280;7.236;2023-12-20T04:54:04;20.40;;;9.07;;
870;SDS011;422;51.280;7.236;2023-12-20T04:56:33;23.50;;;9.50;;
870;SDS011;422;51.280;7.236;2023-12-20T04:59:00;19.27;;;9.93;;
870;SDS011;422;51.280;7.236;2023-12-20T05:01:27;23.27;;;10.60;;
870;SDS011;422;51.280;7.236;2023-12-20T05:03:54;29.17;;;11.30;;
870;SDS011;422;51.280;7.236;2023-12-20T05:06:21;16.00;;;10.30;;
870;SDS011;422;51.280;7.236;2023-12-20T05:08:49;20.47;;;10.50;;
870;SDS011;422;51.280;7.236;2023-12-20T05:11:17;25.37;;;11.60;;
870;SDS011;422;51.280;7.236;2023-12-20T05:13:45;21.63;;;11.00;;
870;SDS011;422;51.280;7.236;2023-12-20T05:16:14;27.20;;;12.13;;
870;SDS011;422;51.280;7.236;2023-12-20T05:18:43;19.60;;;10.30;;
870;SDS011;422;51.280;7.236;2023-12-20T05:21:10;21.80;;;10.33;;
870;SDS011;422;51.280;7.236;2023-12-20T05:23:37;17.23;;;10.17;;
870;SDS011;422;51.280;7.236;2023-12-20T05:26:04;19.87;;;10.47;;
870;SDS011;422;51.280;7.236;2023-12-20T05:28:31;20.60;;;10.57;;
870;SDS011;422;51.280;7.236;2023-12-20T05:31:00;23.70;;;11.00;;
870;SDS011;422;51.280;7.236;2023-12-20T05:33:27;20.43;;;10.80;;
870;SDS011;422;51.280;7.236;2023-12-20T05:35:56;20.53;;;10.83;;
870;SDS011;422;51.280;7.236;2023-12-20T05:38:23;23.27;;;10.30;;
870;SDS011;422;51.280;7.236;2023-12-20T05:40:50;21.73;;;10.90;;
870;SDS011;422;51.280;7.236;2023-12-20T05:43:17;18.30;;;9.93;;
870;SDS011;422;51.280;7.236;2023-12-20T05:45:45;21.37;;;10.20;;
870;SDS011;422;51.280;7.236;2023-12-20T05:48:13;17.27;;;10.40;;
870;SDS011;422;51.280;7.236;2023-12-20T05:50:40;20.10;;;10.70;;
870;SDS011;422;51.280;7.236;2023-12-20T05:53:08;19.10;;;10.30;;
870;SDS011;422;51.280;7.236;2023-12-20T05:55:35;22.13;;;11.33;;
870;SDS011;422;51.280;7.236;2023-12-20T05:58:02;21.33;;;10.40;;
870;SDS011;422;51.280;7.236;2023-12-20T06:00:30;16.87;;;9.10;;
870;SDS011;422;51.280;7.236;2023-12-20T06:02:57;21.43;;;11.07;;
870;SDS011;422;51.280;7.236;2023-12-20T06:05:26;18.50;;;9.33;;
870;SDS011;422;51.280;7.236;2023-12-20T06:07:53;24.70;;;11.30;;
870;SDS011;422;51.280;7.236;2023-12-20T06:10:22;20.77;;;10.47;;
870;SDS011;422;51.280;7.236;2023-12-20T06:12:49;28.93;;;9.10;;
870;SDS011;422;51.280;7.236;2023-12-20T06:15:17;20.40;;;10.30;;
870;SDS011;422;51.280;7.236;2023-12-20T06:17:44;19.13;;;9.73;;
870;SDS011;422;51.280;7.236;2023-12-20T06:20:12;19.27;;;9.57;;
870;SDS011;422;51.280;7.236;2023-12-20T06:22:40;17.53;;;8.30;;
870;SDS011;422;51.280;7.236;2023-12-20T06:25:08;21.17;;;9.20;;
870;SDS011;422;51.280;7.236;2023-12-20T06:27:35;17.23;;;7.80;;
870;SDS011;422;51.280;7.236;2023-12-20T06:30:02;20.87;;;9.23;;
870;SDS011;422;51.280;7.236;2023-12-20T06:32:30;16.50;;;9.10;;
870;SDS011;422;51.280;7.236;2023-12-20T06:34:57;20.30;;;10.20;;
870;SDS011;422;51.280;7.236;2023-12-20T06:37:24;21.73;;;10.50;;
870;SDS011;422;51.280;7.236;2023-12-20T06:39:53;21.13;;;10.90;;
870;SDS011;422;51.280;7.236;2023-12-20T06:42:21;15.63;;;10.53;;
870;SDS011;422;51.280;7.236;2023-12-20T06:44:49;22.07;;;10.30;;
870;SDS011;422;51.280;7.236;2023-12-20T06:47:16;16.77;;;10.13;;
870;SDS011;422;51.280;7.236;2023-12-20T06:49:43;26.70;;;11.07;;
870;SDS011;422;51.280;7.236;2023-12-20T06:52:10;23.33;;;11.03;;
870;SDS011;422;51.280;7.236;2023-12-20T06:54:37;19.07;;;11.37;;
870;SDS011;422;51.280;7.236;2023-12-20T06:57:06;20.50;;;11.30;;
870;SDS011;422;51.280;7.236;2023-12-20T06:59:37;30.90;;;11.93;;
870;SDS011;422;51.280;7.236;2023-12-20T07:02:05;15.67;;;10.40;;
870;SDS011;422;51.280;7.236;2023-12-20T07:04:32;28.73;;;11.80;;
870;SDS011;422;51.280;7.236;2023-12-20T07:07:00;29.30;;;12.60;;
870;SDS011;422;51.280;7.236;2023-12-20T07:09:27;20.60;;;10.80;;
870;SDS011;422;51.280;7.236;2023-12-20T07:11:54;19.83;;;10.53;;
870;SDS011;422;51.280;7.236;2023-12-20T07:14:23;20.33;;;10.10;;
870;SDS011;422;51.280;7.236;2023-12-20T07:16:50;19.43;;;11.50;;
870;SDS011;422;51.280;7.236;2023-12-20T07:19:17;17.27;;;11.20;;
870;SDS011;422;51.280;7.236;2023-12-20T07:21:44;24.07;;;12.23;;
870;SDS011;422;51.280;7.236;2023-12-20T07:24:11;23.83;;;10.90;;
870;SDS011;422;51.280;7.236;2023-12-20T07:26:39;20.63;;;10.20;;
870;SDS011;422;51.280;7.236;2023-12-20T07:29:06;19.93;;;9.83;;
870;SDS011;422;51.280;7.236;2023-12-20T07:31:34;28.07;;;10.57;;
870;SDS011;422;51.280;7.236;2023-12-20T07:34:02;18.43;;;10.70;;
870;SDS011;422;51.280;7.236;2023-12-20T07:36:29;22.00;;;8.93;;
870;SDS011;422;51.280;7.236;2023-12-20T07:38:56;18.77;;;10.17;;
870;SDS011;422;51.280;7.236;2023-12-20T07:41:23;20.07;;;10.40;;
870;SDS011;422;51.280;7.236;2023-12-20T07:43:50;23.03;;;9.93;;
870;SDS011;422;51.280;7.236;2023-12-20T07:46:18;20.37;;;10.27;;
870;SDS011;422;51.280;7.236;2023-12-20T07:48:50;21.70;;;9.50;;
870;SDS011;422;51.280;7.236;2023-12-20T07:51:17;23.53;;;9.40;;
870;SDS011;422;51.280;7.236;2023-12-20T07:53:46;22.50;;;9.97;;
870;SDS011;422;51.280;7.236;2023-12-20T07:56:14;21.83;;;8.80;;
870;SDS011;422;51.280;7.236;2023-12-20T07:58:41;18.20;;;9.27;;
870;SDS011;422;51.280;7.236;2023-12-20T08:01:09;25.03;;;11.10;;
870;SDS011;422;51.280;7.236;2023-12-20T08:03:37;21.23;;;9.53;;
870;SDS011;422;51.280;7.236;2023-12-20T08:06:06;19.90;;;9.03;;
870;SDS011;422;51.280;7.236;2023-12-20T08:08:33;19.63;;;9.53;;
870;SDS011;422;51.280;7.236;2023-12-20T08:11:00;24.63;;;10.27;;
870;SDS011;422;51.280;7.236;2023-12-20T08:13:28;15.87;;;8.80;;
870;SDS011;422;51.280;7.236;2023-12-20T08:15:55;23.97;;;10.03;;
870;SDS011;422;51.280;7.236;2023-12-20T08:18:23;20.43;;;10.23;;
870;SDS011;422;51.280;7.236;2023-12-20T08:20:50;20.33;;;9.03;;
870;SDS011;422;51.280;7.236;2023-12-20T08:23:20;24.53;;;10.50;;
870;SDS011;422;51.280;7.236;2023-12-20T08:25:47;15.13;;;8.47;;
870;SDS011;422;51.280;7.236;2023-12-20T08:28:15;23.83;;;9.87;;
870;SDS011;422;51.280;7.236;2023-12-20T08:30:42;18.77;;;8.80;;
870;SDS011;422;51.280;7.236;2023-12-20T08:33:10;18.43;;;9.97;;
870;SDS011;422;51.280;7.236;2023-12-20T08:35:38;22.57;;;11.10;;
870;SDS011;422;51.280;7.236;2023-12-20T08:38:05;17.20;;;9.73;;
870;SDS011;422;51.280;7.236;2023-12-20T08:40:34;24.27;;;9.07;;
870;SDS011;422;51.280;7.236;2023-12-20T08:43:03;19.50;;;9.60;;
870;SDS011;422;51.280;7.236;2023-12-20T08:45:30;23.00;;;10.17;;
870;SDS011;422;51.280;7.236;2023-12-20T08:47:57;15.40;;;8.50;;
870;SDS011;422;51.280;7.236;2023-12-20T08:50:25;20.30;;;8.73;;
870;SDS011;422;51.280;7.236;2023-12-20T08:52:52;17.67;;;9.67;;
870;SDS011;422;51.280;7.236;2023-12-20T08:55:19;25.73;;;9.60;;
870;SDS011;422;51.280;7.236;2023-12-20T08:57:48;18.60;;;10.00;;
870;SDS011;422;51.280;7.236;2023-12-20T09:00:16;22.97;;;11.20;;
870;SDS011;422;51.280;7.236;2023-12-20T09:02:46;17.37;;;8.83;;
870;SDS011;422;51.280;7.236;2023-12-20T09:05:13;19.27;;;9.27;;
870;SDS011;422;51.280;7.236;2023-12-20T09:07:40;19.67;;;9.07;;
870;SDS011;422;51.280;7.236;2023-12-20T09:10:08;22.30;;;9.17;;
870;SDS011;422;51.280;7.236;2023-12-20T09:12:35;18.70;;;9.50;;
870;SDS011;422;51.280;7.236;2023-12-20T09:15:07;29.77;;;9.77;;
870;SDS011;422;51.280;7.236;2023-12-20T09:17:35;16.73;;;10.07;;
870;SDS011;422;51.280;7.236;2023-12-20T09:20:02;18.50;;;8.30;;
870;SDS011;422;51.280;7.236;2023-12-20T09:22:32;20.13;;;8.30;;
870;SDS011;422;51.280;7.236;2023-12-20T09:24:59;16.13;;;8.67;;
870;SDS011;422;51.280;7.236;2023-12-20T09:27:27;17.63;;;8.50;;
870;SDS011;422;51.280;7.236;2023-12-20T09:29:54;17.90;;;6.77;;
870;SDS011;422;51.280;7.236;2023-12-20T09:32:25;17.53;;;8.47;;
870;SDS011;422;51.280;7.236;2023-12-20T09:34:52;20.80;;;7.80;;
870;SDS011;422;51.280;7.236;2023-12-20T09:37:20;19.17;;;8.00;;
870;SDS011;422;51.280;7.236;2023-12-20T09:39:47;18.30;;;7.67;;
870;SDS011;422;51.280;7.236;2023-12-20T09:42:15;20.57;;;8.40;;
870;SDS011;422;51.280;7.236;2023-12-20T09:44:50;16.20;;;7.20;;
870;SDS011;422;51.280;7.236;2023-12-20T09:47:17;18.30;;;8.77;;
870;SDS011;422;51.280;7.236;2023-12-20T09:49:50;16.50;;;7.60;;
870;SDS011;422;51.280;7.236;2023-12-20T09:52:18;14.27;;;7.90;;
870;SDS011;422;51.280;7.236;2023-12-20T09:54:47;23.33;;;8.40;;
870;SDS011;422;51.280;7.236;2023-12-20T09:57:20;16.10;;;7.27;;
870;SDS011;422;51.280;7.236;2023-12-20T09:59:47;16.50;;;8.17;;
870;SDS011;422;51.280;7.236;2023-12-20T10:02:15;18.83;;;8.80;;
870;SDS011;422;51.280;7.236;2023-12-20T10:04:47;15.73;;;8.23;;
870;SDS011;422;51.280;7.236;2023-12-20T10:07:16;26.43;;;7.80;;
870;SDS011;422;51.280;7.236;2023-12-20T10:09:44;14.97;;;6.97;;
870;SDS011;422;51.280;7.236;2023-12-20T10:12:11;19.30;;;8.40;;
870;SDS011;422;51.280;7.236;2023-12-20T10:14:39;15.93;;;7.50;;
870;SDS011;422;51.280;7.236;2023-12-20T10:17:06;17.73;;;7.50;;
870;SDS011;422;51.280;7.236;2023-12-20T10:19:34;15.83;;;6.50;;
870;SDS011;422;51.280;7.236;2023-12-20T10:22:03;23.77;;;7.90;;
870;SDS011;422;51.280;7.236;2023-12-20T10:24:32;13.13;;;6.90;;
870;SDS011;422;51.280;7.236;2023-12-20T10:27:03;16.40;;;6.90;;
870;SDS011;422;51.280;7.236;2023-12-20T10:29:31;17.07;;;6.20;;
870;SDS011;422;51.280;7.236;2023-12-20T10:32:00;16.20;;;7.50;;
870;SDS011;422;51.280;7.236;2023-12-20T10:34:47;23.10;;;7.00;;
870;SDS011;422;51.280;7.236;2023-12-20T10:37:14;18.70;;;6.10;;
870;SDS011;422;51.280;7.236;2023-12-20T10:39:43;19.93;;;6.87;;
870;SDS011;422;51.280;7.236;2023-12-20T10:42:15;17.83;;;6.10;;
870;SDS011;422;51.280;7.236;2023-12-20T10:44:43;15.43;;;7.30;;
870;SDS011;422;51.280;7.236;2023-12-20T10:47:11;16.40;;;6.80;;
870;SDS011;422;51.280;7.236;2023-12-20T10:49:39;16.80;;;7.00;;
870;SDS011;422;51.280;7.236;2023-12-20T10:52:08;19.47;;;7.00;;
870;SDS011;422;51.280;7.236;2023-12-20T10:54:37;20.30;;;6.80;;
870;SDS011;422;51.280;7.236;2023-12-20T10:57:07;17.80;;;7.20;;
870;SDS011;422;51.280;7.236;2023-12-20T10:59:36;15.90;;;7.43;;
870;SDS011;422;51.280;7.236;2023-12-20T11:02:04;13.30;;;6.90;;
870;SDS011;422;51.280;7.236;2023-12-20T11:04:35;18.30;;;8.47;;
870;SDS011;422;51.280;7.236;2023-12-20T11:07:08;15.20;;;6.57;;
870;SDS011;422;51.280;7.236;2023-12-20T11:09:47;16.77;;;7.40;;
870;SDS011;422;51.280;7.236;2023-12-20T11:12:28;17.20;;;7.00;;
870;SDS011;422;51.280;7.236;2023-12-20T11:15:06;17.43;;;7.47;;
870;SDS011;422;51.280;7.236;2023-12-20T11:17:34;23.17;;;8.00;;
870;SDS011;422;51.280;7.236;2023-12-20T11:20:06;19.87;;;7.17;;
870;SDS011;422;51.280;7.236;2023-12-20T11:22:39;19.27;;;7.03;;
870;SDS011;422;51.280;7.236;2023-12-20T11:25:18;15.33;;;6.90;;
870;SDS011;422;51.280;7.236;2023-12-20T11:30:40;24.97;;;7.80;;
870;SDS011;422;51.280;7.236;2023-12-20T11:33:08;26.60;;;7.17;;
870;SDS011;422;51.280;7.236;2023-12-20T11:35:35;12.20;;;6.33;;
870;SDS011;422;51.280;7.236;2023-12-20T11:38:04;21.23;;;8.10;;
870;SDS011;422;51.280;7.236;2023-12-20T11:40:34;27.47;;;8.77;;
870;SDS011;422;51.280;7.236;2023-12-20T11:43:04;16.77;;;7.90;;
870;SDS011;422;51.280;7.236;2023-12-20T11:45:31;14.63;;;7.20;;
870;SDS011;422;51.280;7.236;2023-12-20T11:48:00;17.10;;;7.37;;
870;SDS011;422;51.280;7.236;2023-12-20T11:50:29;22.03;;;9.17;;
870;SDS011;422;51.280;7.236;2023-12-20T11:52:57;14.37;;;7.17;;
870;SDS011;422;51.280;7.236;2023-12-20T11:55:24;20.70;;;7.53;;
870;SDS011;422;51.280;7.236;2023-12-20T11:57:52;14.90;;;6.77;;
870;SDS011;422;51.280;7.236;2023-12-20T12:00:20;16.30;;;7.70;;
870;SDS011;422;51.280;7.236;2023-12-20T12:02:57;19.90;;;8.73;;
870;SDS011;422;51.280;7.236;2023-12-20T12:05:27;17.10;;;7.50;;
870;SDS011;422;51.280;7.236;2023-12-20T12:07:54;23.13;;;8.13;;
870;SDS011;422;51.280;7.236;2023-12-20T12:10:22;15.90;;;7.13;;
870;SDS011;422;51.280;7.236;2023-12-20T12:12:49;16.63;;;7.77;;
870;SDS011;422;51.280;7.236;2023-12-20T12:15:17;13.83;;;7.50;;
870;SDS011;422;51.280;7.236;2023-12-20T12:17:50;21.40;;;7.37;;
870;SDS011;422;51.280;7.236;2023-12-20T12:20:20;16.03;;;7.87;;
870;SDS011;422;51.280;7.236;2023-12-20T12:22:56;19.57;;;7.57;;
870;SDS011;422;51.280;7.236;2023-12-20T12:25:25;15.80;;;7.77;;
870;SDS011;422;51.280;7.236;2023-12-20T12:27:53;20.80;;;7.63;;
870;SDS011;422;51.280;7.236;2023-12-20T12:30:21;15.77;;;8.80;;
870;SDS011;422;51.280;7.236;2023-12-20T12:32:52;17.33;;;8.70;;
870;SDS011;422;51.280;7.236;2023-12-20T12:35:20;18.00;;;8.47;;
870;SDS011;422;51.280;7.236;2023-12-20T12:37:48;19.53;;;8.37;;
870;SDS011;422;51.280;7.236;2023-12-20T12:40:16;15.30;;;7.30;;
870;SDS011;422;51.280;7.236;2023-12-20T12:42:44;20.20;;;9.20;;
870;SDS011;422;51.280;7.236;2023-12-20T12:45:12;16.00;;;7.90;;
870;SDS011;422;51.280;7.236;2023-12-20T12:47:40;17.13;;;8.07;;
870;SDS011;422;51.280;7.236;2023-12-20T12:50:09;13.93;;;7.10;;
870;SDS011;422;51.280;7.236;2023-12-20T12:52:37;18.10;;;7.40;;
870;SDS011;422;51.280;7.236;2023-12-20T12:55:04;16.57;;;8.17;;
870;SDS011;422;51.280;7.236;2023-12-20T12:57:32;15.07;;;8.20;;
870;SDS011;422;51.280;7.236;2023-12-20T13:00:03;16.57;;;9.30;;
870;SDS011;422;51.280;7.236;2023-12-20T13:02:33;15.87;;;7.90;;
870;SDS011;422;51.280;7.236;2023-12-20T13:05:03;17.67;;;8.50;;
870;SDS011;422;51.280;7.236;2023-12-20T13:07:32;18.47;;;8.50;;
870;SDS011;422;51.280;7.236;2023-12-20T13:10:00;14.53;;;7.63;;
870;SDS011;422;51.280;7.236;2023-12-20T13:12:27;20.63;;;7.80;;
870;SDS011;422;51.280;7.236;2023-12-20T13:14:55;15.20;;;9.53;;
870;SDS011;422;51.280;7.236;2023-12-20T13:17:22;24.87;;;9.23;;
870;SDS011;422;51.280;7.236;2023-12-20T13:19:50;22.63;;;9.30;;
870;SDS011;422;51.280;7.236;2023-12-20T13:22:17;19.60;;;8.60;;
870;SDS011;422;51.280;7.236;2023-12-20T13:24:46;15.67;;;8.20;;
870;SDS011;422;51.280;7.236;2023-12-20T13:27:14;19.80;;;9.20;;
870;SDS011;422;51.280;7.236;2023-12-20T13:29:41;18.70;;;8.40;;
870;SDS011;422;51.280;7.236;2023-12-20T13:32:09;16.30;;;9.47;;
870;SDS011;422;51.280;7.236;2023-12-20T13:34:36;21.17;;;8.73;;
870;SDS011;422;51.280;7.236;2023-12-20T13:37:03;16.47;;;9.57;;
870;SDS011;422;51.280;7.236;2023-12-20T13:39:31;13.40;;;8.30;;
870;SDS011;422;51.280;7.236;2023-12-20T13:42:00;15.03;;;8.40;;
870;SDS011;422;51.280;7.236;2023-12-20T13:44:27;12.60;;;9.50;;
870;SDS011;422;51.280;7.236;2023-12-20T13:46:56;11.50;;;8.83;;
870;SDS011;422;51.280;7.236;2023-12-20T13:49:23;18.97;;;9.47;;
870;SDS011;422;51.280;7.236;2023-12-20T13:51:50;13.30;;;9.63;;
870;SDS011;422;51.280;7.236;2023-12-20T13:54:20;18.00;;;10.80;;
870;SDS011;422;51.280;7.236;2023-12-20T13:56:47;14.87;;;10.60;;
870;SDS011;422;51.280;7.236;2023-12-20T13:59:16;22.30;;;11.33;;
870;SDS011;422;51.280;7.236;2023-12-20T14:01:43;16.00;;;10.33;;
870;SDS011;422;51.280;7.236;2023-12-20T14:04:11;21.97;;;11.80;;
870;SDS011;422;51.280;7.236;2023-12-20T14:06:38;22.70;;;11.83;;
870;SDS011;422;51.280;7.236;2023-12-20T14:09:06;21.17;;;12.00;;
870;SDS011;422;51.280;7.236;2023-12-20T14:11:34;18.77;;;11.80;;
870;SDS011;422;51.280;7.236;2023-12-20T14:14:06;21.00;;;12.20;;
870;SDS011;422;51.280;7.236;2023-12-20T14:16:35;17.20;;;11.80;;
870;SDS011;422;51.280;7.236;2023-12-20T14:19:03;16.97;;;11.43;;
870;SDS011;422;51.280;7.236;2023-12-20T14:21:32;15.80;;;11.60;;
870;SDS011;422;51.280;7.236;2023-12-20T14:24:00;19.77;;;13.17;;
870;SDS011;422;51.280;7.236;2023-12-20T14:26:29;17.93;;;12.10;;
870;SDS011;422;51.280;7.236;2023-12-20T14:28:57;17.77;;;12.07;;
870;SDS011;422;51.280;7.236;2023-12-20T14:31:24;18.60;;;11.13;;
870;SDS011;422;51.280;7.236;2023-12-20T14:33:53;16.77;;;11.17;;
870;SDS011;422;51.280;7.236;2023-12-20T14:36:21;19.50;;;11.10;;
870;SDS011;422;51.280;7.236;2023-12-20T14:38:50;17.37;;;10.60;;
870;SDS011;422;51.280;7.236;2023-12-20T14:41:17;15.60;;;11.27;;
870;SDS011;422;51.280;7.236;2023-12-20T14:43:45;20.90;;;11.50;;
870;SDS011;422;51.280;7.236;2023-12-20T14:46:13;13.43;;;12.07;;
870;SDS011;422;51.280;7.236;2023-12-20T14:48:40;17.60;;;11.40;;
870;SDS011;422;51.280;7.236;2023-12-20T14:51:08;17.47;;;10.70;;
870;SDS011;422;51.280;7.236;2023-12-20T14:53:36;23.90;;;10.90;;
870;SDS011;422;51.280;7.236;2023-12-20T14:56:04;23.00;;;11.40;;
870;SDS011;422;51.280;7.236;2023-12-20T14:58:32;19.60;;;12.07;;
870;SDS011;422;51.280;7.236;2023-12-20T15:01:00;21.30;;;11.03;;
870;SDS011;422;51.280;7.236;2023-12-20T15:03:28;20.47;;;11.90;;
870;SDS011;422;51.280;7.236;2023-12-20T15:05:55;21.27;;;11.03;;
870;SDS011;422;51.280;7.236;2023-12-20T15:08:26;18.30;;;11.83;;
870;SDS011;422;51.280;7.236;2023-12-20T15:10:53;18.43;;;10.97;;
870;SDS011;422;51.280;7.236;2023-12-20T15:13:21;18.40;;;11.70;;
870;SDS011;422;51.280;7.236;2023-12-20T15:15:48;17.53;;;10.83;;
870;SDS011;422;51.280;7.236;2023-12-20T15:18:16;18.77;;;11.10;;
870;SDS011;422;51.280;7.236;2023-12-20T15:20:44;21.60;;;11.10;;
870;SDS011;422;51.280;7.236;2023-12-20T15:23:13;17.23;;;11.73;;
870;SDS011;422;51.280;7.236;2023-12-20T15:25:42;16.60;;;10.03;;
870;SDS011;422;51.280;7.236;2023-12-20T15:28:12;18.30;;;11.70;;
870;SDS011;422;51.280;7.236;2023-12-20T15:30:40;16.97;;;11.10;;
870;SDS011;422;51.280;7.236;2023-12-20T15:33:07;21.30;;;11.77;;